Fish Lake Valley, Nevada Weather observations

Data are for 10 minute period ending at time listed.
 Day   Time    Ave.   Ave.  Ave.  Vector   Max.   Stn.    Total    Solar   Ave.  
  of    of     Air    Rel.  Wind   Wind    Wind   Baro.  Precip.   Rad.    Soil  
Year   Day     Temp.  Hum.  Speed  Dir.    Gust   Pres.                    Temp. 
2014   (PST)    F      %     mph   deg.    mph     mb.     in.     W/m2     F    
--------------------------------------------------------------------------------- 
 362    4:00   15.4    82    3.4   176      5.8   859.0    0.00       0    32.4  
 362    5:00   14.3    83    3.6   162      6.9   858.0    0.00       0    32.3  
 362    6:00   16.7    82    4.7   150      6.9   858.0    0.00       0    32.2  
 362    7:00   17.2    81    2.9   146      6.0   858.0    0.00       0    32.1  
 362    8:00   16.4    82    2.8   188      5.6   859.0    0.00      33    32.0  
 362    9:00   23.4    70    5.6   133     10.7   858.0    0.00     211    31.9  
 362   10:00   30.6    50    5.6   136     10.7   858.0    0.00     349    31.8  
 362   11:00   35.9    34    2.3    81      6.5   858.0    0.00     456    31.6  
 362   12:00   38.7    30    2.4   284      6.0   856.0    0.00     512    31.5  
 362   13:00   42.7    26    2.5   236      6.7   855.0    0.00     508    31.5  
 362   14:00   45.8    22    3.6   310      9.2   854.0    0.00     444    31.5  
 362   15:00   45.4    25    6.0   318     10.7   854.0    0.00     330    31.6  
 362   16:00   45.2    27    5.7   297     10.1   854.0    0.00     184    31.7  
 362   17:00   34.0    43    4.8   223      7.4   854.0    0.00       7    31.8  
 362   18:00   27.3    56    6.2   156      9.7   854.0    0.00       0    32.0  
 362   19:00   27.9    52    6.8   154     11.4   854.0    0.00       0    32.3  
 362   20:00   24.1    62    6.2   128      9.7   854.0    0.00       0    32.4  
 362   21:00   24.9    60    7.1   174     10.5   854.0    0.00       0    32.5  
 362   22:00   22.3    69    5.6   140      9.3   854.0    0.00       0    32.5  
 362   23:00   20.2    74    3.8   106      8.1   854.0    0.00       0    32.4  
 363    0:00   17.1    78    2.7   192      7.5   854.0    0.00       0    32.4  
 363    1:00   15.0    82    2.8   174      7.5   854.0    0.00       0    32.3  
 363    2:00   13.0    82    2.8   161      6.3   854.0    0.00       0    32.3  
 363    3:00   11.5    85    5.2   150      9.7   854.0    0.00       0    32.2  

Return to Fish Lake Valley, Nevada graphs page.


Western Regional Climate Center,wrcc@dri.edu